Time;durP1;ratioP1;P1;durP2;ratioP2;P2;SDS_P1;SDS_P2;PMS_P1;PMS_P2;Temp;Humidity;BMP_temperature;BMP_pressure;BME280_temperature;BME280_humidity;BME280_pressure;Samples;Min_cycle;Max_cycle;Signal;HPM_P1;HPM_P2
2023/07/13 00:02:07;;;;;;;6.95;4.95;;;;;;;28.85;60.71;100815.41;5066732;28;20048;-59
2023/07/13 00:04:34;;;;;;;5.68;4.97;;;;;;;28.85;60.65;100817.31;5065192;28;20044;-58
2023/07/13 00:07:02;;;;;;;6.28;5.25;;;;;;;28.84;60.48;100827.34;5059204;28;20044;-57
2023/07/13 00:09:29;;;;;;;7.30;4.80;;;;;;;28.84;60.72;100824.59;5069779;28;20067;-56
2023/07/13 00:11:57;;;;;;;8.32;5.30;;;;;;;28.85;60.51;100829.03;5060968;28;20056;-56
2023/07/13 00:14:27;;;;;;;6.68;5.40;;;;;;;28.86;60.82;100827.16;5061080;28;20041;-57
2023/07/13 00:16:55;;;;;;;5.75;4.70;;;;;;;28.87;60.41;100829.69;5069581;28;20049;-57
2023/07/13 00:19:23;;;;;;;6.93;5.10;;;;;;;28.87;60.83;100826.94;5058495;28;20063;-57
2023/07/13 00:21:50;;;;;;;8.63;5.50;;;;;;;28.87;60.87;100824.22;5065938;28;20409;-57
2023/07/13 00:24:23;;;;;;;6.50;4.55;;;;;;;28.86;60.92;100818.97;5065609;28;20381;-57
2023/07/13 00:26:51;;;;;;;6.65;4.53;;;;;;;28.87;60.93;100824.22;5058098;28;20040;-57
2023/07/13 00:29:20;;;;;;;7.72;5.35;;;;;;;28.87;60.84;100824.22;5055173;28;20052;-58
2023/07/13 00:31:48;;;;;;;6.40;5.40;;;;;;;28.88;60.75;100819.63;5054949;28;20048;-57
2023/07/13 00:34:16;;;;;;;7.05;5.13;;;;;;;28.89;60.49;100838.50;5067272;28;20052;-58
2023/07/13 00:36:44;;;;;;;6.65;5.18;;;;;;;28.89;60.92;100833.06;5058280;28;20056;-57
2023/07/13 00:39:12;;;;;;;7.03;4.85;;;;;;;28.89;60.85;100841.25;5065585;28;20420;-57
2023/07/13 00:41:39;;;;;;;6.00;5.15;;;;;;;28.91;61.10;100841.03;5063099;28;20044;-57
2023/07/13 00:44:15;;;;;;;7.07;5.13;;;;;;;28.91;61.01;100835.59;5069764;28;20439;-57
2023/07/13 00:46:42;;;;;;;7.78;5.55;;;;;;;28.91;61.08;100835.59;5057776;28;20041;-57
2023/07/13 00:49:13;;;;;;;6.43;4.75;;;;;;;28.90;60.61;100834.75;5067542;28;20405;-57
2023/07/13 00:51:50;;;;;;;8.68;5.15;;;;;;;28.91;61.04;100833.69;5063220;28;20527;-57
2023/07/13 00:54:24;;;;;;;5.53;5.03;;;;;;;28.93;60.80;100822.63;5058620;28;20056;-57
2023/07/13 00:56:57;;;;;;;5.82;4.93;;;;;;;28.92;61.01;100820.91;5056267;28;20060;-58
2023/07/13 00:59:26;;;;;;;5.97;5.10;;;;;;;28.92;61.15;100824.47;5063159;28;20075;-58
2023/07/13 01:01:54;;;;;;;7.10;4.65;;;;;;;28.93;61.00;100818.00;5059359;28;20492;-58
2023/07/13 01:04:25;;;;;;;6.90;5.20;;;;;;;28.92;60.79;100816.28;5069714;28;20518;-58
2023/07/13 01:06:52;;;;;;;8.65;4.80;;;;;;;28.94;61.04;100805.22;5058012;28;20415;-57
2023/07/13 01:09:21;;;;;;;7.35;5.03;;;;;;;28.93;60.72;100815.28;5065209;28;20048;-57
2023/07/13 01:11:49;;;;;;;5.63;4.80;;;;;;;28.93;61.11;100815.28;5070818;28;20538;-57
2023/07/13 01:14:16;;;;;;;6.50;5.05;;;;;;;28.94;60.90;100805.22;5071170;28;20056;-57
2023/07/13 01:16:49;;;;;;;5.47;4.72;;;;;;;28.94;61.13;100816.97;5068300;28;20060;-57
2023/07/13 01:19:25;;;;;;;7.43;5.57;;;;;;;28.95;61.02;100825.97;5066750;28;20056;-58
2023/07/13 01:21:53;;;;;;;7.82;5.38;;;;;;;28.94;60.83;100816.97;5058907;28;20477;-57
2023/07/13 01:24:20;;;;;;;6.68;5.05;;;;;;;28.94;61.19;100816.97;5072019;28;20485;-57
2023/07/13 01:26:49;;;;;;;7.10;5.57;;;;;;;28.96;61.11;100816.75;5063798;28;20052;-57
2023/07/13 01:29:16;;;;;;;6.57;4.75;;;;;;;28.94;61.23;100814.22;5063204;28;20040;-57
2023/07/13 01:31:44;;;;;;;7.35;5.85;;;;;;;28.94;60.90;100803.34;5071104;28;20061;-57
2023/07/13 01:34:12;;;;;;;8.48;5.90;;;;;;;28.95;60.74;100802.28;5061412;28;20047;-57
2023/07/13 01:36:40;;;;;;;7.82;5.28;;;;;;;28.94;61.18;100800.59;5067989;28;20481;-58
2023/07/13 01:39:07;;;;;;;6.97;5.15;;;;;;;28.96;60.89;100797.66;5067965;28;20408;-57
2023/07/13 01:41:35;;;;;;;6.95;5.47;;;;;;;28.96;61.05;100787.59;5071235;28;20056;-57
2023/07/13 01:44:02;;;;;;;6.47;5.20;;;;;;;28.96;60.92;100778.59;5056915;28;20049;-57
2023/07/13 01:46:30;;;;;;;7.03;5.28;;;;;;;28.96;60.85;100775.88;5064524;28;20060;-58
2023/07/13 01:48:58;;;;;;;5.68;5.00;;;;;;;28.96;61.00;100773.97;5071956;28;20053;-58
2023/07/13 01:51:26;;;;;;;5.85;4.93;;;;;;;28.97;60.93;100774.88;5059461;28;20044;-58
2023/07/13 01:53:53;;;;;;;6.93;4.78;;;;;;;28.97;60.78;100774.88;5071923;28;20048;-58
2023/07/13 01:56:20;;;;;;;6.78;4.50;;;;;;;28.97;60.97;100781.19;5065109;28;20488;-57
2023/07/13 01:58:48;;;;;;;6.43;4.70;;;;;;;28.97;60.74;100778.44;5072093;28;20059;-57
2023/07/13 02:01:16;;;;;;;6.30;5.47;;;;;;;28.98;60.54;100769.22;5059375;28;20052;-58
2023/07/13 02:03:43;;;;;;;6.22;5.13;;;;;;;28.98;60.50;100768.38;5071287;28;20505;-58
2023/07/13 02:06:11;;;;;;;5.97;4.57;;;;;;;28.98;60.68;100762.94;5063714;28;20048;-58
2023/07/13 02:08:41;;;;;;;6.35;5.32;;;;;;;28.98;60.59;100758.31;5063169;28;20056;-58
2023/07/13 02:11:08;;;;;;;5.95;4.82;;;;;;;28.98;60.59;100760.22;5073196;28;20420;-58
2023/07/13 02:13:36;;;;;;;7.95;5.63;;;;;;;28.98;60.54;100743.84;5059505;28;20496;-57
2023/07/13 02:16:03;;;;;;;6.95;4.85;;;;;;;28.97;60.36;100743.03;5066805;28;20502;-58
2023/07/13 02:18:31;;;;;;;6.05;5.00;;;;;;;28.97;60.45;100737.56;5069114;28;20377;-58
2023/07/13 02:20:59;;;;;;;8.68;4.90;;;;;;;28.97;60.47;100734.84;5060009;28;20071;-58
2023/07/13 02:23:26;;;;;;;5.85;4.25;;;;;;;28.98;60.26;100741.97;5070532;28;20041;-58
2023/07/13 02:25:58;;;;;;;6.38;5.28;;;;;;;28.98;60.18;100749.31;5064889;28;20045;-57
2023/07/13 02:28:25;;;;;;;6.13;4.83;;;;;;;28.97;59.66;100756.66;5062096;28;20069;-58
2023/07/13 02:30:52;;;;;;;5.43;3.97;;;;;;;28.98;59.93;100761.06;5071893;28;20499;-58
2023/07/13 02:33:20;;;;;;;7.85;4.63;;;;;;;28.97;59.81;100759.38;5061001;28;20408;-58
2023/07/13 02:35:48;;;;;;;5.72;4.07;;;;;;;28.98;60.02;100765.66;5065818;28;20064;-58
2023/07/13 02:38:15;;;;;;;5.13;4.20;;;;;;;28.98;59.47;100754.75;5069046;28;20048;-57
2023/07/13 02:40:43;;;;;;;5.22;4.43;;;;;;;28.98;59.76;100750.16;5059865;28;20060;-58
2023/07/13 02:43:12;;;;;;;6.15;4.40;;;;;;;28.98;59.47;100755.59;5068170;28;20048;-58
2023/07/13 02:45:43;;;;;;;5.78;4.68;;;;;;;28.98;59.33;100752.03;5063971;28;20048;-58
2023/07/13 02:48:14;;;;;;;4.97;4.43;;;;;;;28.97;59.10;100755.81;5061570;28;20045;-57
2023/07/13 02:50:41;;;;;;;6.43;4.40;;;;;;;28.98;59.46;100755.59;5071243;28;20074;-58
2023/07/13 02:53:09;;;;;;;6.70;4.53;;;;;;;28.98;59.39;100768.38;5061185;28;20060;-57
2023/07/13 02:55:36;;;;;;;5.63;4.32;;;;;;;28.97;59.68;100770.28;5062318;28;20048;-58
2023/07/13 02:58:04;;;;;;;5.93;4.28;;;;;;;28.98;59.45;100771.13;5069949;28;20480;-58
2023/07/13 03:00:31;;;;;;;4.80;3.67;;;;;;;28.98;59.34;100777.41;5069421;28;20052;-57
2023/07/13 03:02:59;;;;;;;6.53;4.30;;;;;;;28.98;59.39;100782.84;5065631;28;20049;-57
2023/07/13 03:05:27;;;;;;;5.07;4.30;;;;;;;28.99;59.54;100780.97;5064381;28;20045;-57
2023/07/13 03:07:57;;;;;;;5.68;4.05;;;;;;;28.99;59.22;100781.81;5058416;28;20485;-58
2023/07/13 03:10:25;;;;;;;4.78;4.10;;;;;;;28.98;59.23;100771.13;5069443;28;20048;-60
2023/07/13 03:12:53;;;;;;;5.38;3.65;;;;;;;28.97;58.77;100781.19;5061307;28;20055;-60
2023/07/13 03:15:24;;;;;;;5.32;3.72;;;;;;;28.95;58.76;100771.47;5059657;28;20045;-60
2023/07/13 03:17:54;;;;;;;5.72;4.03;;;;;;;28.94;58.59;100758.88;5068776;28;20049;-61
2023/07/13 03:20:21;;;;;;;5.38;4.28;;;;;;;28.93;58.58;100762.66;5070082;28;20045;-60
2023/07/13 03:22:49;;;;;;;4.05;3.50;;;;;;;28.92;58.17;100756.34;5061726;28;20056;-61
2023/07/13 03:25:17;;;;;;;5.03;4.03;;;;;;;28.92;57.79;100752.78;5059160;28;20041;-61
2023/07/13 03:27:44;;;;;;;7.72;4.55;;;;;;;28.91;57.74;100743.75;5070835;28;20052;-59
2023/07/13 03:30:12;;;;;;;5.35;3.58;;;;;;;28.91;58.25;100745.66;5057317;28;20412;-59
2023/07/13 03:32:42;;;;;;;6.80;4.22;;;;;;;28.91;58.40;100762.00;5069647;28;20389;-61
2023/07/13 03:35:10;;;;;;;7.88;4.32;;;;;;;28.92;58.55;100764.50;5060781;28;20052;-60
2023/07/13 03:37:42;;;;;;;5.32;4.03;;;;;;;28.92;57.98;100755.50;5069974;28;20072;-61
2023/07/13 03:40:14;;;;;;;5.32;3.55;;;;;;;28.92;58.11;100753.63;5054573;28;20057;-61
2023/07/13 03:42:44;;;;;;;5.57;3.78;;;;;;;28.92;58.56;100741.88;5054252;28;20065;-61
2023/07/13 03:45:14;;;;;;;4.75;3.58;;;;;;;28.93;58.37;100735.41;5067913;28;20052;-60
2023/07/13 03:47:42;;;;;;;4.97;3.60;;;;;;;28.92;58.09;100742.72;5070710;28;20404;-60
2023/07/13 03:50:10;;;;;;;8.48;4.38;;;;;;;28.92;58.26;100739.16;5059898;28;20048;-60
2023/07/13 03:52:37;;;;;;;5.60;3.60;;;;;;;28.91;57.78;100743.75;5069924;28;20055;-60
2023/07/13 03:55:06;;;;;;;6.90;4.00;;;;;;;28.91;58.00;100751.94;5070064;28;20515;-60
2023/07/13 03:57:34;;;;;;;6.63;3.75;;;;;;;28.91;57.80;100765.56;5069918;28;20049;-59
2023/07/13 04:00:06;;;;;;;4.60;3.63;;;;;;;28.91;58.04;100765.56;5066710;28;20048;-59
2023/07/13 04:02:42;;;;;;;3.97;3.42;;;;;;;28.91;58.28;100771.00;5073563;28;20064;-59
2023/07/13 04:05:09;;;;;;;6.57;4.68;;;;;;;28.92;57.83;100764.50;5068539;28;20041;-59
2023/07/13 04:07:36;;;;;;;6.72;4.03;;;;;;;28.92;57.98;100759.06;5055751;28;20053;-59
2023/07/13 04:10:04;;;;;;;6.75;4.07;;;;;;;28.92;58.37;100750.88;5062943;28;20510;-59
2023/07/13 04:12:32;;;;;;;6.95;4.07;;;;;;;28.91;58.21;100762.84;5059231;28;20542;-59
2023/07/13 04:14:59;;;;;;;6.10;4.00;;;;;;;28.91;57.91;100762.00;5071408;28;20040;-59
2023/07/13 04:17:26;;;;;;;6.00;3.90;;;;;;;28.90;57.89;100779.41;5055300;28;20393;-60
2023/07/13 04:19:54;;;;;;;4.53;3.50;;;;;;;28.90;57.99;100773.94;5062472;28;20415;-61
2023/07/13 04:22:21;;;;;;;5.82;3.90;;;;;;;28.90;58.28;100779.41;5061141;28;20063;-61
2023/07/13 04:24:49;;;;;;;8.13;3.70;;;;;;;28.90;57.95;100768.50;5070289;28;20059;-61
2023/07/13 04:27:16;;;;;;;4.93;3.65;;;;;;;28.90;57.88;100774.78;5055123;28;20053;-59
2023/07/13 04:29:44;;;;;;;5.03;3.20;;;;;;;28.90;57.77;100776.69;5062443;28;20107;-58
2023/07/13 04:32:11;;;;;;;5.35;3.92;;;;;;;28.90;58.04;100785.69;5061045;28;20520;-59
2023/07/13 04:34:38;;;;;;;5.93;3.88;;;;;;;28.91;58.00;100791.97;5070017;28;20041;-59
2023/07/13 04:37:07;;;;;;;4.20;3.47;;;;;;;28.91;58.25;100797.44;5058238;28;20048;-60
2023/07/13 04:39:34;;;;;;;4.63;3.90;;;;;;;28.92;58.80;100799.09;5065513;28;20044;-60
2023/07/13 04:42:03;;;;;;;5.78;3.60;;;;;;;28.91;58.62;100792.81;5066446;28;20053;-61
2023/07/13 04:44:30;;;;;;;4.75;3.90;;;;;;;28.92;58.61;100796.38;5060457;28;20045;-61
2023/07/13 04:46:57;;;;;;;5.35;3.78;;;;;;;28.91;58.85;100808.31;5073058;28;20041;-60
2023/07/13 04:49:25;;;;;;;6.32;4.60;;;;;;;28.92;58.77;100801.84;5066526;28;20044;-58
2023/07/13 04:51:52;;;;;;;5.00;3.50;;;;;;;28.90;58.44;100780.25;5064751;28;20493;-58
2023/07/13 04:54:19;;;;;;;5.97;4.13;;;;;;;28.89;58.25;100789.47;5074146;28;20048;-58
2023/07/13 04:56:47;;;;;;;6.50;4.15;;;;;;;28.88;58.14;100806.81;5058736;28;20393;-59
2023/07/13 04:59:14;;;;;;;6.32;4.00;;;;;;;28.88;58.13;100815.00;5065142;28;20527;-59
2023/07/13 05:01:41;;;;;;;5.07;3.60;;;;;;;28.87;58.07;100820.66;5064422;28;20049;-59
2023/07/13 05:04:09;;;;;;;6.75;4.07;;;;;;;28.87;58.19;100813.31;5073717;28;20052;-59
2023/07/13 05:06:36;;;;;;;6.55;3.92;;;;;;;28.86;58.25;100806.19;5058624;28;20033;-60
2023/07/13 05:09:04;;;;;;;7.82;3.95;;;;;;;28.83;57.80;100807.41;5066067;28;20044;-61
2023/07/13 05:11:31;;;;;;;5.25;3.50;;;;;;;28.85;58.03;100815.41;5068030;28;20041;-60
2023/07/13 05:13:58;;;;;;;6.15;3.72;;;;;;;28.84;57.66;100816.44;5074307;28;20399;-60
2023/07/13 05:16:26;;;;;;;9.77;3.90;;;;;;;28.83;57.73;100829.22;5058534;28;20389;-58
2023/07/13 05:18:54;;;;;;;6.15;3.80;;;;;;;28.83;57.39;100825.66;5065351;28;20053;-58
2023/07/13 05:21:21;;;;;;;5.35;3.50;;;;;;;28.82;57.62;100824.81;5064137;28;20045;-57
2023/07/13 05:23:48;;;;;;;7.05;3.45;;;;;;;28.82;57.04;100834.88;5072954;28;20044;-58
2023/07/13 05:26:16;;;;;;;5.55;3.50;;;;;;;28.81;57.25;100827.75;5061176;28;20048;-58
2023/07/13 05:28:44;;;;;;;6.78;3.80;;;;;;;28.79;56.82;100811.56;5068376;28;20409;-59
2023/07/13 05:31:11;;;;;;;4.13;3.13;;;;;;;28.79;56.61;100805.28;5069370;28;20098;-59
2023/07/13 05:33:40;;;;;;;7.57;3.60;;;;;;;28.80;57.02;100818.72;5060540;28;20064;-59
2023/07/13 05:36:07;;;;;;;4.82;3.30;;;;;;;28.80;56.82;100809.69;5058254;28;20488;-59
2023/07/13 05:38:35;;;;;;;4.60;3.00;;;;;;;28.80;57.15;100815.13;5065604;28;20044;-59
2023/07/13 05:41:02;;;;;;;5.20;3.17;;;;;;;28.79;56.79;100829.81;5063619;28;20045;-59
2023/07/13 05:43:33;;;;;;;6.75;3.28;;;;;;;28.78;56.69;100819.94;5073108;28;20053;-59
2023/07/13 05:46:00;;;;;;;4.63;2.63;;;;;;;28.78;56.15;100837.13;5061327;28;20056;-60
2023/07/13 05:48:28;;;;;;;4.32;2.75;;;;;;;28.78;56.09;100841.75;5066028;28;20424;-61
2023/07/13 05:50:55;;;;;;;5.45;2.55;;;;;;;28.78;55.80;100839.88;5069533;28;20048;-61
2023/07/13 05:53:22;;;;;;;8.27;2.70;;;;;;;28.78;55.68;100837.13;5060376;28;20044;-61
2023/07/13 05:55:50;;;;;;;5.05;3.55;;;;;;;28.76;55.46;100833.78;5070691;28;20037;-60
2023/07/13 05:58:18;;;;;;;3.45;1.95;;;;;;;28.76;55.63;100838.34;5064220;28;20495;-60
2023/07/13 06:00:46;;;;;;;3.63;2.05;;;;;;;28.75;55.30;100850.31;5062997;28;20052;-61
2023/07/13 06:03:16;;;;;;;5.88;2.40;;;;;;;28.76;55.10;100855.56;5059212;28;20044;-60
2023/07/13 06:05:43;;;;;;;8.40;2.13;;;;;;;28.77;54.88;100850.97;5070579;28;20052;-60
2023/07/13 06:08:11;;;;;;;4.68;2.33;;;;;;;28.76;54.98;100852.84;5065721;28;20037;-61
2023/07/13 06:10:38;;;;;;;4.70;2.75;;;;;;;28.76;54.98;100852.84;5062087;28;20049;-60
2023/07/13 06:13:05;;;;;;;3.88;1.90;;;;;;;28.77;55.08;100861.88;5059465;28;20044;-61
2023/07/13 06:15:33;;;;;;;3.58;2.08;;;;;;;28.77;54.64;100850.97;5070522;28;20056;-60
2023/07/13 06:18:00;;;;;;;3.50;1.80;;;;;;;28.77;54.58;100849.09;5065500;28;20052;-60
2023/07/13 06:20:29;;;;;;;4.78;1.92;;;;;;;28.78;54.54;100848.03;5062055;28;20049;-60
2023/07/13 06:22:56;;;;;;;2.55;1.60;;;;;;;28.78;54.68;100842.59;5058896;28;20049;-60
2023/07/13 06:25:26;;;;;;;4.55;1.88;;;;;;;28.78;54.51;100825.41;5069659;28;20044;-60
2023/07/13 06:27:53;;;;;;;4.88;1.92;;;;;;;28.77;54.23;100830.00;5068401;28;20044;-58
2023/07/13 06:30:21;;;;;;;8.85;2.33;;;;;;;28.78;54.08;100839.88;5061859;28;20365;-58
2023/07/13 06:32:50;;;;;;;2.90;1.85;;;;;;;28.78;54.82;100849.91;5071473;28;20052;-58
2023/07/13 06:35:17;;;;;;;4.68;2.15;;;;;;;28.79;54.42;100843.44;5061495;28;20052;-58
2023/07/13 06:37:44;;;;;;;7.20;2.20;;;;;;;28.78;53.91;100836.28;5065396;28;20045;-59
2023/07/13 06:40:12;;;;;;;3.78;1.80;;;;;;;28.75;52.72;100842.13;5069312;28;20040;-60
2023/07/13 06:42:39;;;;;;;3.17;1.60;;;;;;;28.71;51.76;100852.56;5059808;28;20075;-60
2023/07/13 06:45:07;;;;;;;3.85;1.35;;;;;;;28.67;51.68;100855.88;5069840;28;20469;-58
2023/07/13 06:47:35;;;;;;;5.38;1.98;;;;;;;28.62;51.28;100850.16;5065145;28;20036;-58
2023/07/13 06:50:03;;;;;;;3.80;1.50;;;;;;;28.59;51.52;100854.94;5061108;28;20045;-58
2023/07/13 06:52:30;;;;;;;6.97;1.58;;;;;;;28.59;52.05;100851.38;5071068;28;20055;-58
2023/07/13 06:54:57;;;;;;;5.03;1.58;;;;;;;28.58;52.28;100853.28;5061103;28;20040;-58
2023/07/13 06:57:25;;;;;;;3.00;1.30;;;;;;;28.59;52.27;100859.56;5065327;28;20048;-59
2023/07/13 06:59:52;;;;;;;6.40;1.50;;;;;;;28.58;52.51;100850.56;5069025;28;20040;-60
2023/07/13 07:02:19;;;;;;;4.10;1.27;;;;;;;28.57;52.21;100854.31;5059268;28;20045;-60
2023/07/13 07:04:47;;;;;;;2.40;1.38;;;;;;;28.56;52.21;100862.66;5069027;28;20041;-59
2023/07/13 07:07:14;;;;;;;3.55;1.38;;;;;;;28.54;51.62;100851.13;5063871;28;20048;-60
2023/07/13 07:09:41;;;;;;;4.13;1.60;;;;;;;28.55;51.43;100869.16;5059950;28;20053;-60
2023/07/13 07:12:08;;;;;;;4.05;1.25;;;;;;;28.50;51.38;100867.00;5070576;28;20040;-60
2023/07/13 07:14:37;;;;;;;3.25;1.75;;;;;;;28.45;51.73;100863.19;5061268;28;20052;-59
2023/07/13 07:17:04;;;;;;;4.82;1.42;;;;;;;28.37;51.54;100847.81;5064411;28;20043;-58
2023/07/13 07:19:32;;;;;;;4.80;1.70;;;;;;;28.31;51.87;100840.34;5071818;28;20052;-60
2023/07/13 07:21:59;;;;;;;3.97;1.75;;;;;;;28.24;52.69;100842.16;5058491;28;20060;-60
2023/07/13 07:24:26;;;;;;;3.15;1.50;;;;;;;28.17;52.78;100816.75;5068080;28;20049;-61
2023/07/13 07:26:54;;;;;;;4.40;2.00;;;;;;;28.13;53.09;100819.00;5064124;28;20043;-60
2023/07/13 07:29:26;;;;;;;5.80;1.98;;;;;;;28.08;53.16;100826.91;5069693;28;20048;-60
2023/07/13 07:31:56;;;;;;;3.55;2.10;;;;;;;28.10;53.52;100838.41;5069591;28;20059;-61
2023/07/13 07:34:26;;;;;;;4.95;2.17;;;;;;;28.15;53.69;100843.28;5057885;28;20511;-60
2023/07/13 07:36:53;;;;;;;3.47;1.85;;;;;;;28.20;53.53;100866.19;5065235;28;20439;-60
2023/07/13 07:39:24;;;;;;;4.10;1.77;;;;;;;28.23;53.44;100862.25;5068167;28;20598;-60
2023/07/13 07:41:51;;;;;;;2.65;1.85;;;;;;;28.20;54.05;100854.47;5059214;28;20044;-60
2023/07/13 07:44:22;;;;;;;4.93;1.75;;;;;;;28.16;53.96;100853.16;5063779;28;20396;-60
2023/07/13 07:46:49;;;;;;;4.32;1.60;;;;;;;28.18;53.66;100859.25;5065970;28;20037;-59
2023/07/13 07:49:16;;;;;;;2.78;1.70;;;;;;;28.19;54.22;100848.16;5066090;28;20511;-60
2023/07/13 07:51:44;;;;;;;4.47;1.95;;;;;;;28.20;54.12;100833.53;5058186;28;20107;-60
2023/07/13 07:54:11;;;;;;;5.88;2.65;;;;;;;28.14;54.11;100833.44;5065429;28;20044;-60
2023/07/13 07:56:45;;;;;;;4.07;2.17;;;;;;;28.06;54.59;100827.06;5066781;28;20476;-58
2023/07/13 07:59:32;;;;;;;6.53;2.30;;;;;;;28.09;54.55;100820.41;5061533;28;20052;-59
2023/07/13 08:02:03;;;;;;;3.92;1.90;;;;;;;28.05;54.59;100806.34;5061763;28;20059;-59
2023/07/13 08:04:33;;;;;;;3.35;1.92;;;;;;;28.01;55.47;100796.88;5071728;28;20036;-59
2023/07/13 08:07:04;;;;;;;5.72;2.42;;;;;;;28.03;55.24;100796.66;5057336;28;20040;-58
2023/07/13 08:09:31;;;;;;;4.05;2.17;;;;;;;28.06;55.37;100812.63;5058576;28;20053;-58
2023/07/13 08:11:59;;;;;;;3.90;1.73;;;;;;;28.09;55.52;100823.97;5062324;28;20044;-58
2023/07/13 08:14:29;;;;;;;3.38;2.05;;;;;;;28.14;55.56;100808.94;5069603;28;20041;-60
2023/07/13 08:17:16;;;;;;;4.85;2.15;;;;;;;28.18;55.10;100804.81;5068793;28;20049;-59
2023/07/13 08:19:44;;;;;;;5.38;2.50;;;;;;;28.19;55.51;100787.44;5056648;28;20527;-59
2023/07/13 08:22:11;;;;;;;5.60;2.58;;;;;;;28.16;55.95;100785.13;5065116;28;20040;-59
2023/07/13 08:24:38;;;;;;;4.18;2.30;;;;;;;28.12;56.01;100802.88;5067280;28;20507;-60
2023/07/13 08:27:06;;;;;;;4.20;2.60;;;;;;;28.15;56.27;100818.78;5057479;28;20051;-59
2023/07/13 08:29:33;;;;;;;5.60;3.00;;;;;;;28.16;55.88;100809.63;5063428;28;20041;-59
2023/07/13 08:32:01;;;;;;;5.07;2.28;;;;;;;28.18;56.19;100800.19;5065082;28;20057;-59
2023/07/13 08:34:28;;;;;;;4.63;2.53;;;;;;;28.20;55.92;100797.31;5065173;28;20044;-59
2023/07/13 08:36:55;;;;;;;4.18;2.72;;;;;;;28.19;56.13;100801.88;5057389;28;20416;-60
2023/07/13 08:39:23;;;;;;;7.57;2.80;;;;;;;28.22;56.38;100828.72;5065255;28;20057;-60
2023/07/13 08:41:59;;;;;;;4.90;2.63;;;;;;;28.24;56.22;100874.84;5064963;28;20070;-60
2023/07/13 08:44:46;;;;;;;3.88;2.40;;;;;;;28.26;56.12;100859.16;5063422;28;20056;-60
2023/07/13 08:47:16;;;;;;;7.95;3.42;;;;;;;28.26;56.46;100848.25;5061130;28;20052;-58
2023/07/13 08:49:44;;;;;;;6.70;3.08;;;;;;;28.17;56.59;100880.19;5070846;28;20049;-59
2023/07/13 08:52:29;;;;;;;5.05;2.50;;;;;;;28.08;56.34;100897.66;5058076;28;20044;-58
2023/07/13 08:54:58;;;;;;;6.97;3.35;;;;;;;28.00;57.10;100890.44;5056433;28;20052;-60
2023/07/13 08:57:34;;;;;;;6.95;3.42;;;;;;;27.96;56.90;100891.00;5065516;28;20385;-60
2023/07/13 09:00:04;;;;;;;8.15;2.75;;;;;;;27.92;57.36;100909.56;5068374;28;20051;-61
2023/07/13 09:02:53;;;;;;;5.63;3.08;;;;;;;27.91;57.81;100935.06;5057616;28;20044;-60
2023/07/13 09:05:34;;;;;;;4.43;3.17;;;;;;;27.91;58.24;100959.56;5061821;28;20045;-60
2023/07/13 09:08:20;;;;;;;6.47;3.15;;;;;;;27.90;58.08;100949.72;5069583;28;20408;-60
2023/07/13 09:10:58;;;;;;;5.72;3.00;;;;;;;27.90;58.51;100919.78;5062831;28;20056;-59
2023/07/13 09:13:33;;;;;;;9.00;3.97;;;;;;;27.87;58.75;100854.84;5065768;28;20412;-60
2023/07/13 09:16:03;;;;;;;8.48;3.78;;;;;;;27.79;59.54;100833.19;5056103;28;20063;-60
2023/07/13 09:19:01;;;;;;;6.20;3.90;;;;;;;27.72;60.02;100810.47;5067046;28;20045;-60
2023/07/13 09:21:32;;;;;;;7.05;3.58;;;;;;;27.68;60.23;100790.13;5054196;28;20061;-58
2023/07/13 09:24:41;;;;;;;6.75;3.47;;;;;;;27.62;60.74;100802.56;5069568;28;20053;-58
2023/07/13 09:27:19;;;;;;;8.38;3.83;;;;;;;27.62;60.99;100862.41;5069653;28;20431;-60
2023/07/13 09:30:33;;;;;;;6.57;3.95;;;;;;;27.66;60.93;100920.00;5070042;28;20060;-60
2023/07/13 09:33:01;;;;;;;6.25;3.75;;;;;;;27.71;61.13;100940.19;5052149;28;20060;-60
2023/07/13 09:35:30;;;;;;;8.70;4.00;;;;;;;27.76;61.32;100937.78;5070702;28;20071;-61
2023/07/13 09:38:03;;;;;;;5.88;4.20;;;;;;;27.80;61.13;100941.00;5060497;28;20048;-60
2023/07/13 09:41:00;;;;;;;6.07;4.03;;;;;;;27.79;61.32;100952.88;5067139;28;20378;-59
2023/07/13 09:43:28;;;;;;;8.98;4.53;;;;;;;27.69;62.12;100955.84;5073236;28;20048;-56
2023/07/13 09:45:56;;;;;;;12.43;4.22;;;;;;;27.54;62.69;100942.19;5067295;28;20479;-58
2023/07/13 09:48:24;;;;;;;11.75;4.68;;;;;;;27.42;62.83;100943.66;5065104;28;20400;-59
2023/07/13 09:50:56;;;;;;;5.68;3.42;;;;;;;27.33;62.76;100947.47;5060282;28;20045;-59
2023/07/13 09:53:23;;;;;;;8.67;3.57;;;;;;;27.29;62.24;100948.88;5072158;28;20040;-59
2023/07/13 09:55:50;;;;;;;6.75;2.88;;;;;;;27.29;61.91;100955.16;5065160;28;20049;-59
2023/07/13 09:58:29;;;;;;;7.50;2.90;;;;;;;27.32;61.61;100952.06;5066082;28;20052;-57
2023/07/13 10:01:05;;;;;;;8.93;3.63;;;;;;;27.33;60.93;100963.78;5061368;28;20072;-57
2023/07/13 10:03:41;;;;;;;5.57;3.25;;;;;;;27.33;60.55;100969.22;5057319;28;20070;-58
2023/07/13 10:06:16;;;;;;;5.85;2.90;;;;;;;27.31;60.28;100953.13;5061583;28;20053;-58
2023/07/13 10:08:45;;;;;;;5.82;2.90;;;;;;;27.30;60.48;100961.44;5069118;28;20047;-59
2023/07/13 10:11:20;;;;;;;7.00;3.00;;;;;;;27.31;60.18;100955.81;5072816;28;20048;-59
2023/07/13 10:13:53;;;;;;;4.53;2.85;;;;;;;27.34;60.27;100947.28;5067886;28;20056;-59
2023/07/13 10:16:22;;;;;;;3.72;2.28;;;;;;;27.40;60.38;100956.59;5061081;28;20049;-58
2023/07/13 10:18:55;;;;;;;6.07;2.80;;;;;;;27.42;60.58;100948.25;5072005;28;20068;-58
2023/07/13 10:21:28;;;;;;;6.50;2.53;;;;;;;27.44;60.58;100960.66;5068042;28;20052;-59
2023/07/13 10:24:14;;;;;;;6.13;2.97;;;;;;;27.47;60.37;100952.13;5067003;28;20043;-59
2023/07/13 10:26:48;;;;;;;5.10;2.90;;;;;;;27.54;60.32;100953.06;5058054;28;20103;-58
2023/07/13 10:29:16;;;;;;;4.57;2.75;;;;;;;27.58;60.28;100948.13;5056568;28;20056;-59
2023/07/13 10:31:45;;;;;;;7.05;3.10;;;;;;;27.61;60.28;100942.31;5056674;28;20061;-59
2023/07/13 10:34:13;;;;;;;4.35;2.70;;;;;;;27.65;60.39;100951.78;5069200;28;20052;-59
2023/07/13 10:36:46;;;;;;;9.32;2.83;;;;;;;27.68;60.08;100954.16;5057545;28;20048;-59
2023/07/13 10:39:27;;;;;;;4.05;2.92;;;;;;;27.76;60.38;100936.94;5068167;28;20045;-59
2023/07/13 10:42:01;;;;;;;5.50;3.20;;;;;;;27.82;60.17;100938.91;5056602;28;20432;-59
2023/07/13 10:44:31;;;;;;;5.13;2.83;;;;;;;27.84;60.26;100936.88;5057835;28;20045;-58
2023/07/13 10:47:02;;;;;;;5.88;2.78;;;;;;;27.85;60.54;100939.38;5060726;28;20053;-57
2023/07/13 10:49:32;;;;;;;5.38;2.67;;;;;;;27.90;60.02;100937.97;5065255;28;20409;-57
2023/07/13 10:51:59;;;;;;;5.78;3.30;;;;;;;28.00;60.08;100928.53;5061086;28;20071;-57
2023/07/13 10:54:30;;;;;;;7.45;3.60;;;;;;;27.80;60.85;100930.94;5070524;28;20040;-57
2023/07/13 10:57:17;;;;;;;5.60;2.80;;;;;;;27.71;61.11;100921.16;5067579;28;20060;-57
2023/07/13 11:00:08;;;;;;;11.07;3.85;;;;;;;27.76;61.16;100924.19;5068419;28;20032;-57
2023/07/13 11:02:36;;;;;;;7.57;4.07;;;;;;;27.82;60.93;100903.53;5055898;28;20060;-57
2023/07/13 11:05:36;;;;;;;7.22;4.03;;;;;;;27.81;60.75;100907.31;5063271;28;20403;-57
2023/07/13 11:08:13;;;;;;;8.38;4.63;;;;;;;27.74;60.51;100901.75;5072032;28;20061;-57
2023/07/13 11:10:53;;;;;;;8.75;4.32;;;;;;;27.73;60.61;100897.34;5060380;28;20103;-57
2023/07/13 11:13:57;;;;;;;7.30;4.47;;;;;;;27.64;60.80;100903.03;5060923;28;20063;-58
2023/07/13 11:16:25;;;;;;;8.00;4.10;;;;;;;27.69;60.81;100881.56;5064750;28;20447;-57
2023/07/13 11:19:25;;;;;;;5.85;3.28;;;;;;;27.65;60.71;100885.69;5063454;28;20037;-57
2023/07/13 11:22:12;;;;;;;4.45;2.95;;;;;;;27.67;60.69;100883.59;5057492;28;20508;-58
2023/07/13 11:24:53;;;;;;;6.00;2.97;;;;;;;27.75;60.54;100880.84;5066085;28;20052;-57
2023/07/13 11:27:33;;;;;;;5.50;3.00;;;;;;;27.81;60.41;100883.66;5071705;28;20538;-58
2023/07/13 11:30:22;;;;;;;6.40;3.75;;;;;;;27.87;60.38;100871.16;5072261;28;20091;-57
2023/07/13 11:33:13;;;;;;;5.82;4.00;;;;;;;27.91;60.40;100872.47;5062855;28;20057;-57
2023/07/13 11:35:46;;;;;;;7.80;4.38;;;;;;;28.02;59.61;100874.75;5062119;28;20063;-58
2023/07/13 11:38:23;;;;;;;7.03;3.83;;;;;;;27.97;59.94;100866.31;5060779;28;20519;-57
2023/07/13 11:40:54;;;;;;;6.85;3.78;;;;;;;27.97;60.08;100863.59;5070894;28;20055;-57